Time;durP1;ratioP1;P1;durP2;ratioP2;P2;SDS_P1;SDS_P2;PMS_P1;PMS_P2;Temp;Humidity;BMP_temperature;BMP_pressure;BME280_temperature;BME280_humidity;BME280_pressure;Samples;Min_cycle;Max_cycle;Signal;HPM_P1;HPM_P2
2023/01/25 00:00:40;;;;;;;77.10;33.22;;;;;;;2.48;72.77;103645.91;5026831;28;20034;-88
2023/01/25 00:03:05;;;;;;;74.47;34.10;;;;;;;2.43;72.96;103643.13;5030150;28;20030;-88
2023/01/25 00:05:31;;;;;;;73.20;33.33;;;;;;;2.46;73.66;103663.22;5027432;28;20554;-88
2023/01/25 00:07:56;;;;;;;78.15;33.78;;;;;;;2.38;73.39;103638.53;5024231;28;20041;-89
2023/01/25 00:10:21;;;;;;;78.43;34.83;;;;;;;2.37;73.62;103640.25;5028444;28;20032;-88
2023/01/25 00:12:46;;;;;;;79.18;35.22;;;;;;;2.31;73.39;103634.81;5028046;28;20044;-88
2023/01/25 00:15:12;;;;;;;84.07;34.20;;;;;;;2.39;73.20;103650.78;5002529;28;20105;-89
2023/01/25 00:17:37;;;;;;;78.03;37.00;;;;;;;2.32;73.85;103640.91;5021800;28;20017;-89
2023/01/25 00:20:03;;;;;;;77.97;35.72;;;;;;;2.25;73.55;103635.47;5028754;28;20477;-88
2023/01/25 00:22:28;;;;;;;78.65;34.47;;;;;;;2.28;73.43;103639.91;5005564;28;20025;-88
2023/01/25 00:24:53;;;;;;;78.22;35.25;;;;;;;2.28;73.78;103637.28;5009021;28;20028;-88
2023/01/25 00:27:18;;;;;;;84.88;35.55;;;;;;;2.30;74.08;103635.66;5006361;28;20030;-88
2023/01/25 00:29:44;;;;;;;90.07;39.30;;;;;;;2.40;73.43;103647.34;5010124;28;20021;-88
2023/01/25 00:32:12;;;;;;;87.20;36.80;;;;;;;2.37;72.94;103655.94;5013811;28;20121;-88
2023/01/25 00:34:48;;;;;;;80.45;35.17;;;;;;;2.41;73.56;103654.34;5009661;28;20060;-88
2023/01/25 00:37:20;;;;;;;84.65;38.53;;;;;;;2.32;74.02;103633.97;5028967;28;20029;-89
2023/01/25 00:39:45;;;;;;;76.35;34.42;;;;;;;2.38;73.65;103634.22;5022804;28;20127;-88
2023/01/25 00:42:12;;;;;;;86.55;37.03;;;;;;;2.42;74.24;103646.53;5026965;28;20481;-88
2023/01/25 00:44:38;;;;;;;79.90;35.40;;;;;;;2.26;73.87;103624.19;5021699;28;20057;-89
2023/01/25 00:47:06;;;;;;;80.78;36.78;;;;;;;2.20;74.07;103617.84;5023740;28;20394;-89
2023/01/25 00:49:32;;;;;;;89.82;37.05;;;;;;;2.41;74.60;103636.06;5029671;28;20022;-89
2023/01/25 00:51:58;;;;;;;87.45;37.35;;;;;;;2.28;73.97;103619.94;5019378;28;20597;-90
2023/01/25 00:54:24;;;;;;;84.80;36.35;;;;;;;2.39;73.53;103636.00;5024862;28;20045;-89
2023/01/25 00:56:55;;;;;;;84.47;37.70;;;;;;;2.31;73.95;103632.19;5021657;28;20116;-90
2023/01/25 00:59:20;;;;;;;84.78;36.10;;;;;;;2.33;73.62;103634.88;5028722;28;20484;-89
2023/01/25 01:01:45;;;;;;;88.00;39.42;;;;;;;2.26;74.05;103625.91;5005711;28;20025;-89
2023/01/25 01:04:11;;;;;;;89.65;39.30;;;;;;;2.19;73.55;103614.38;5021326;28;20030;-89
2023/01/25 01:06:38;;;;;;;89.05;39.78;;;;;;;2.17;73.80;103613.41;5022046;28;20060;-89
2023/01/25 01:09:05;;;;;;;85.35;36.22;;;;;;;2.23;73.30;103624.06;5022298;28;20033;-89
2023/01/25 01:11:31;;;;;;;90.10;38.72;;;;;;;2.16;73.65;103610.72;5001596;28;20485;-89
2023/01/25 01:13:57;;;;;;;87.28;37.65;;;;;;;2.16;73.24;103619.44;5021196;28;20041;-89
2023/01/25 01:16:22;;;;;;;83.25;37.47;;;;;;;2.11;73.65;103605.34;5022984;28;20810;-89
2023/01/25 01:18:48;;;;;;;87.68;38.13;;;;;;;2.16;73.32;103618.56;5007766;28;20124;-89
2023/01/25 01:21:13;;;;;;;83.47;34.85;;;;;;;2.13;73.32;103618.44;5016280;28;20049;-90
2023/01/25 01:23:39;;;;;;;93.60;39.90;;;;;;;2.24;74.16;103624.97;5007616;28;20033;-89
2023/01/25 01:26:07;;;;;;;96.03;39.30;;;;;;;2.18;73.27;103619.50;5006053;28;20048;-89
2023/01/25 01:28:34;;;;;;;86.40;38.30;;;;;;;2.14;73.85;103614.97;5025790;28;20061;-88
2023/01/25 01:31:05;;;;;;;88.43;38.60;;;;;;;2.24;73.72;103620.66;5009671;28;20026;-89
2023/01/25 01:33:30;;;;;;;92.90;38.72;;;;;;;2.18;74.46;103609.94;5007962;28;20026;-89
2023/01/25 01:35:56;;;;;;;94.65;38.95;;;;;;;2.18;74.34;103598.63;5007974;28;20378;-89
2023/01/25 01:38:22;;;;;;;98.95;39.63;;;;;;;2.26;73.45;103615.47;5011547;28;20030;-89
2023/01/25 01:40:48;;;;;;;98.05;38.97;;;;;;;2.15;73.42;103602.03;5003965;28;20033;-89
2023/01/25 01:43:16;;;;;;;90.50;37.03;;;;;;;2.22;73.64;103624.91;5018087;28;20417;-89
2023/01/25 01:45:49;;;;;;;91.72;38.55;;;;;;;2.20;73.95;103629.19;5023196;28;20029;-89
2023/01/25 01:48:37;;;;;;;93.57;38.95;;;;;;;2.15;73.58;103622.00;5023379;28;20037;-88
2023/01/25 01:51:18;;;;;;;95.45;37.95;;;;;;;2.11;74.46;103613.16;5010430;28;20609;-89
2023/01/25 01:53:49;;;;;;;94.47;40.78;;;;;;;2.01;73.62;103605.81;5003495;28;20029;-89
2023/01/25 01:56:20;;;;;;;94.88;39.00;;;;;;;2.11;73.45;103623.59;5009301;28;20035;-88
2023/01/25 01:58:48;;;;;;;105.32;41.88;;;;;;;2.03;73.17;103614.56;5022170;28;20084;-89
2023/01/25 02:01:14;;;;;;;105.47;40.17;;;;;;;2.07;73.86;103613.88;5025393;28;20037;-89
2023/01/25 02:03:40;;;;;;;100.18;40.70;;;;;;;2.07;73.96;103621.69;5027945;28;20500;-88
2023/01/25 02:06:16;;;;;;;98.43;39.25;;;;;;;2.17;74.63;103622.94;5028940;28;20049;-89
2023/01/25 02:08:42;;;;;;;93.07;38.65;;;;;;;2.09;74.00;103608.69;5008266;28;20041;-89
2023/01/25 02:11:09;;;;;;;97.30;39.53;;;;;;;2.18;74.04;103625.59;5024551;28;20084;-89
2023/01/25 02:13:36;;;;;;;102.05;42.08;;;;;;;2.39;73.22;103624.69;5025465;28;20029;-89
2023/01/25 02:16:02;;;;;;;98.65;39.25;;;;;;;2.42;73.13;103623.06;5005616;28;20543;-88
2023/01/25 02:18:28;;;;;;;98.80;40.70;;;;;;;2.30;72.88;103604.31;5030045;28;20037;-89
2023/01/25 02:20:56;;;;;;;96.40;38.35;;;;;;;2.33;73.16;103609.66;5012711;28;20083;-88
2023/01/25 02:23:48;;;;;;;102.68;43.80;;;;;;;2.22;72.28;103605.75;5011195;28;20967;-89
2023/01/25 02:26:15;;;;;;;101.93;41.35;;;;;;;2.13;72.29;103602.78;5029604;28;20108;-89
2023/01/25 02:28:59;;;;;;;111.45;43.45;;;;;;;2.04;72.98;103596.34;5011576;28;20025;-89
2023/01/25 02:31:25;;;;;;;110.45;42.40;;;;;;;1.97;71.86;103585.66;5012108;28;20072;-89
2023/01/25 02:33:50;;;;;;;105.97;40.78;;;;;;;1.96;71.70;103587.38;5012872;28;20073;-89
2023/01/25 02:36:21;;;;;;;103.78;42.45;;;;;;;1.99;72.63;103602.22;5028766;28;20025;-89
2023/01/25 02:38:56;;;;;;;113.85;44.85;;;;;;;1.80;74.29;103584.97;5030594;28;20040;-89
2023/01/25 02:41:34;;;;;;;103.15;42.22;;;;;;;1.84;74.05;103581.66;5025126;28;20025;-89
2023/01/25 02:44:04;;;;;;;104.85;42.95;;;;;;;1.95;73.55;103597.72;5022339;28;20077;-89
2023/01/25 02:46:32;;;;;;;101.60;41.17;;;;;;;1.93;73.00;103573.31;5029602;28;20047;-89
2023/01/25 02:48:59;;;;;;;96.28;39.88;;;;;;;1.96;73.06;103569.09;5004814;28;20045;-89
2023/01/25 02:51:26;;;;;;;110.63;41.50;;;;;;;1.92;72.98;103564.59;5012500;28;20026;-88
2023/01/25 02:53:51;;;;;;;102.47;40.97;;;;;;;1.97;73.23;103570.00;5028847;28;20304;-89
2023/01/25 02:56:19;;;;;;;109.35;42.05;;;;;;;2.03;73.81;103581.53;5029360;28;20018;-89
2023/01/25 02:58:45;;;;;;;106.50;42.38;;;;;;;2.05;73.52;103576.38;5009441;28;20025;-89
2023/01/25 03:01:11;;;;;;;107.35;40.65;;;;;;;2.12;73.52;103573.19;5007879;28;20036;-89
2023/01/25 03:03:36;;;;;;;102.43;40.75;;;;;;;1.97;73.17;103575.22;5008525;28;20072;-89
2023/01/25 03:06:02;;;;;;;106.50;42.70;;;;;;;2.00;73.77;103589.22;5028274;28;20077;-88
2023/01/25 03:08:27;;;;;;;110.10;41.50;;;;;;;1.92;73.26;103575.03;5028529;28;20112;-89
2023/01/25 03:10:57;;;;;;;102.57;40.83;;;;;;;2.01;73.94;103593.66;5009703;28;20612;-89
2023/01/25 03:13:23;;;;;;;115.20;43.47;;;;;;;1.99;74.15;103582.25;5029255;28;20104;-88
2023/01/25 03:15:48;;;;;;;112.15;43.17;;;;;;;1.98;73.62;103577.88;5022026;28;20108;-89
2023/01/25 03:18:14;;;;;;;103.53;40.92;;;;;;;2.21;73.48;103578.75;5026110;28;20030;-89
2023/01/25 03:20:39;;;;;;;110.63;41.85;;;;;;;2.15;72.86;103562.88;5004159;28;20029;-89
2023/01/25 03:23:04;;;;;;;106.13;42.05;;;;;;;2.08;72.10;103552.13;5029057;28;20461;-89
2023/01/25 03:25:30;;;;;;;106.97;41.60;;;;;;;2.04;73.64;103567.66;5006037;28;20029;-88
2023/01/25 03:27:55;;;;;;;107.38;40.75;;;;;;;2.02;73.43;103563.22;5028900;28;20033;-89
2023/01/25 03:30:20;;;;;;;108.57;42.03;;;;;;;2.01;73.65;103536.25;5028699;28;20027;-89
2023/01/25 03:32:46;;;;;;;117.22;44.22;;;;;;;1.85;73.63;103530.38;5023663;28;20493;-89
2023/01/25 03:35:11;;;;;;;109.07;42.85;;;;;;;1.95;74.50;103543.81;5025998;28;20102;-89
2023/01/25 03:37:36;;;;;;;112.95;43.25;;;;;;;1.92;74.02;103532.41;5005967;28;20030;-89
2023/01/25 03:40:02;;;;;;;111.68;42.70;;;;;;;1.84;74.17;103526.88;5002252;28;20572;-89
2023/01/25 03:42:27;;;;;;;105.18;41.22;;;;;;;1.99;74.54;103545.72;5000323;28;20064;-88
2023/01/25 03:44:52;;;;;;;122.38;43.17;;;;;;;1.90;74.13;103532.31;5022674;28;20053;-89
2023/01/25 03:47:18;;;;;;;104.00;41.38;;;;;;;1.96;74.28;103536.91;5022415;28;20088;-89
2023/01/25 03:49:43;;;;;;;112.00;44.38;;;;;;;1.94;74.24;103534.22;5027170;28;20064;-89
2023/01/25 03:52:08;;;;;;;105.57;40.83;;;;;;;1.86;74.00;103522.59;5026074;28;20073;-89
2023/01/25 03:54:34;;;;;;;112.00;41.95;;;;;;;2.00;74.04;103541.38;5003679;28;20028;-89
2023/01/25 03:56:59;;;;;;;102.18;40.88;;;;;;;1.95;73.99;103540.31;5025871;28;20212;-89
2023/01/25 03:59:24;;;;;;;106.15;41.67;;;;;;;1.98;74.28;103535.22;5010731;28;20389;-88
2023/01/25 04:01:50;;;;;;;107.97;43.05;;;;;;;2.03;73.82;103552.84;4999445;28;20473;-89
2023/01/25 04:04:15;;;;;;;114.90;40.42;;;;;;;1.93;73.93;103531.56;5005086;28;20033;-89
2023/01/25 04:06:41;;;;;;;109.20;41.35;;;;;;;2.02;74.12;103552.78;5008113;28;20052;-89
2023/01/25 04:09:06;;;;;;;115.80;42.30;;;;;;;2.11;73.53;103529.66;5020600;28;20041;-88
2023/01/25 04:11:32;;;;;;;109.90;44.38;;;;;;;2.00;73.37;103538.78;5007014;28;20113;-88
2023/01/25 04:13:57;;;;;;;112.13;41.38;;;;;;;1.96;73.84;103535.19;5025411;28;20032;-88
2023/01/25 04:16:22;;;;;;;110.57;42.92;;;;;;;1.97;73.88;103538.69;5025268;28;20064;-89
2023/01/25 04:18:47;;;;;;;123.88;44.83;;;;;;;1.79;73.46;103517.97;5026588;28;20029;-89
2023/01/25 04:21:13;;;;;;;108.28;42.80;;;;;;;1.76;73.99;103517.84;5028879;28;20029;-89
2023/01/25 04:23:38;;;;;;;116.03;43.33;;;;;;;1.75;73.57;103508.25;5006789;28;20088;-90
2023/01/25 04:26:14;;;;;;;122.30;45.80;;;;;;;1.68;73.91;103514.03;5008111;28;20462;-88
2023/01/25 04:28:39;;;;;;;116.75;42.60;;;;;;;1.75;74.42;103521.28;5024104;28;20052;-88
2023/01/25 04:31:05;;;;;;;118.45;44.20;;;;;;;1.74;74.14;103515.19;5026414;28;20069;-90
2023/01/25 04:33:30;;;;;;;120.78;44.30;;;;;;;1.85;73.93;103531.25;5009405;28;20456;-89
2023/01/25 04:35:56;;;;;;;109.90;41.78;;;;;;;1.74;74.14;103511.69;5008247;28;20528;-88
2023/01/25 04:38:22;;;;;;;116.55;43.05;;;;;;;1.78;74.45;103511.88;5008250;28;20485;-89
2023/01/25 04:40:47;;;;;;;112.75;42.55;;;;;;;1.77;74.13;103514.41;5006645;28;20034;-89
2023/01/25 04:43:14;;;;;;;118.68;42.70;;;;;;;1.75;74.27;103505.66;5005930;28;20079;-89
2023/01/25 04:45:39;;;;;;;118.10;42.63;;;;;;;1.81;74.09;103513.69;5025905;28;20029;-88
2023/01/25 04:48:10;;;;;;;118.10;44.22;;;;;;;1.77;73.63;103524.84;5027349;28;20063;-89
2023/01/25 04:50:36;;;;;;;106.90;41.40;;;;;;;1.78;74.48;103522.31;5020509;28;20049;-89
2023/01/25 04:53:01;;;;;;;115.32;42.53;;;;;;;1.73;74.90;103508.22;5026428;28;20025;-89
2023/01/25 04:55:27;;;;;;;115.10;41.47;;;;;;;1.77;74.49;103515.31;5026719;28;20084;-89
2023/01/25 04:57:53;;;;;;;109.88;42.97;;;;;;;1.45;74.93;103487.97;5008205;28;20091;-89
2023/01/25 05:00:19;;;;;;;120.03;44.65;;;;;;;1.41;74.42;103504.31;5006130;28;20124;-89
2023/01/25 05:02:45;;;;;;;111.72;43.33;;;;;;;1.40;75.02;103510.38;5006083;28;20025;-89
2023/01/25 05:05:10;;;;;;;115.53;42.45;;;;;;;1.43;74.80;103499.16;5006701;28;20037;-89
2023/01/25 05:07:36;;;;;;;116.30;42.58;;;;;;;1.45;74.87;103495.78;5025457;28;20412;-89
2023/01/25 05:10:01;;;;;;;113.80;42.38;;;;;;;1.57;74.84;103503.19;5005311;28;21068;-88
2023/01/25 05:12:26;;;;;;;108.38;40.80;;;;;;;1.55;74.16;103489.22;5026346;28;20066;-89
2023/01/25 05:14:52;;;;;;;106.85;40.08;;;;;;;1.58;74.57;103483.22;5008329;28;20465;-89
2023/01/25 05:17:17;;;;;;;115.30;43.08;;;;;;;1.58;75.04;103483.22;5018369;28;20028;-89
2023/01/25 05:19:42;;;;;;;126.03;46.22;;;;;;;1.52;74.11;103509.94;4999803;28;20025;-89
2023/01/25 05:22:13;;;;;;;116.97;43.83;;;;;;;1.40;74.05;103505.16;5024381;28;20049;-90
2023/01/25 05:24:40;;;;;;;111.22;40.25;;;;;;;1.34;74.65;103502.28;5020830;28;20489;-89
2023/01/25 05:27:06;;;;;;;117.38;43.17;;;;;;;1.23;73.76;103480.13;5007792;28;20489;-89
2023/01/25 05:29:38;;;;;;;113.13;42.92;;;;;;;1.33;75.49;103495.28;5026816;28;20112;-88
2023/01/25 05:32:05;;;;;;;99.72;39.58;;;;;;;1.27;74.41;103477.69;5026634;28;20040;-89
2023/01/25 05:34:30;;;;;;;100.80;40.15;;;;;;;1.37;74.84;103489.38;5007872;28;20121;-89
2023/01/25 05:36:56;;;;;;;97.47;37.63;;;;;;;1.33;73.85;103477.03;5022805;28;20108;-89
2023/01/25 05:39:21;;;;;;;103.40;38.78;;;;;;;1.31;74.75;103483.03;5010487;28;20381;-88
2023/01/25 05:41:46;;;;;;;105.28;39.88;;;;;;;1.32;74.94;103475.28;5027696;28;20037;-89
2023/01/25 05:44:12;;;;;;;105.10;40.60;;;;;;;1.33;74.35;103490.06;5011809;28;20056;-89
2023/01/25 05:46:37;;;;;;;107.30;43.85;;;;;;;1.27;74.03;103498.53;5027931;28;20030;-89
2023/01/25 05:49:03;;;;;;;94.78;37.92;;;;;;;1.18;74.78;103481.66;5030733;28;20108;-89
2023/01/25 05:51:28;;;;;;;100.35;37.85;;;;;;;1.15;75.07;103478.91;5030115;28;20112;-89
2023/01/25 05:53:57;;;;;;;103.82;41.55;;;;;;;0.97;74.90;103474.69;5010974;28;20124;-89
2023/01/25 05:56:23;;;;;;;101.88;37.65;;;;;;;1.17;75.43;103492.91;5030408;28;20029;-88
2023/01/25 05:58:56;;;;;;;98.47;39.60;;;;;;;1.20;75.21;103486.06;5031130;28;20436;-89
2023/01/25 06:01:22;;;;;;;98.75;37.35;;;;;;;1.17;74.95;103479.88;5010681;28;20037;-88
2023/01/25 06:03:48;;;;;;;99.13;39.15;;;;;;;1.27;74.62;103484.63;5004135;28;20028;-89
2023/01/25 06:06:13;;;;;;;95.97;35.92;;;;;;;1.32;73.99;103471.78;5027120;28;20025;-89
2023/01/25 06:08:38;;;;;;;92.55;36.17;;;;;;;1.40;73.27;103493.81;5010860;28;20032;-88
2023/01/25 06:11:08;;;;;;;96.70;36.30;;;;;;;1.39;73.95;103476.41;5026846;28;20029;-89
2023/01/25 06:13:34;;;;;;;90.07;34.13;;;;;;;1.62;73.30;103483.41;5005499;28;20033;-89
2023/01/25 06:15:59;;;;;;;92.60;35.22;;;;;;;1.67;73.27;103479.25;5024319;28;20081;-89
2023/01/25 06:18:25;;;;;;;94.05;36.78;;;;;;;1.63;73.59;103474.78;5010515;28;20061;-89
2023/01/25 06:20:50;;;;;;;92.65;36.75;;;;;;;1.68;73.25;103490.56;5014301;28;20324;-90
2023/01/25 06:23:16;;;;;;;96.18;37.00;;;;;;;1.52;72.55;103471.72;5004258;28;20465;-89
2023/01/25 06:25:42;;;;;;;96.15;38.13;;;;;;;1.49;74.03;103482.06;5011860;28;20087;-89
2023/01/25 06:28:07;;;;;;;92.90;35.78;;;;;;;1.65;72.85;103491.38;5030106;28;21312;-89
2023/01/25 06:30:32;;;;;;;98.75;37.80;;;;;;;1.55;72.71;103477.91;5012671;28;20288;-90
2023/01/25 06:32:58;;;;;;;88.20;34.53;;;;;;;1.59;73.50;103480.72;5031163;28;20057;-88
2023/01/25 06:35:23;;;;;;;97.53;36.97;;;;;;;1.49;72.69;103471.63;5008018;28;20029;-89
2023/01/25 06:37:49;;;;;;;91.85;36.55;;;;;;;1.50;72.74;103472.53;5028065;28;20025;-89
2023/01/25 06:40:14;;;;;;;92.03;37.40;;;;;;;1.39;72.62;103481.59;5031294;28;20057;-89
2023/01/25 06:42:40;;;;;;;92.03;36.15;;;;;;;1.27;73.35;103472.47;5024707;28;20040;-89
2023/01/25 06:45:06;;;;;;;98.20;39.25;;;;;;;1.28;72.65;103476.84;5009073;28;20045;-89
2023/01/25 06:47:31;;;;;;;88.78;33.75;;;;;;;1.25;73.46;103468.91;5030844;28;20079;-89
2023/01/25 06:49:56;;;;;;;95.13;36.60;;;;;;;1.45;73.56;103479.28;5029023;28;20512;-89
2023/01/25 06:52:22;;;;;;;90.90;34.63;;;;;;;1.44;73.32;103472.25;5009466;28;20037;-89
2023/01/25 06:54:47;;;;;;;96.70;37.13;;;;;;;1.40;73.52;103453.03;5025444;28;20025;-90
2023/01/25 06:57:12;;;;;;;95.03;37.83;;;;;;;1.49;72.99;103462.91;5005021;28;20079;-89
2023/01/25 06:59:38;;;;;;;88.38;33.58;;;;;;;1.36;72.35;103450.22;5005715;28;20025;-89
2023/01/25 07:02:03;;;;;;;86.28;34.15;;;;;;;1.46;73.99;103468.91;5004924;28;20025;-89
2023/01/25 07:04:28;;;;;;;87.00;34.75;;;;;;;1.40;73.70;103454.72;5009565;28;20026;-89
2023/01/25 07:06:53;;;;;;;88.95;34.83;;;;;;;1.43;73.34;103457.44;5027845;28;20082;-89
2023/01/25 07:09:23;;;;;;;100.22;37.53;;;;;;;1.36;73.34;103458.06;5005549;28;20025;-89
2023/01/25 07:11:51;;;;;;;95.20;36.22;;;;;;;1.47;72.75;103470.66;5005020;28;20017;-89
2023/01/25 07:14:16;;;;;;;103.95;38.53;;;;;;;1.42;73.45;103466.09;5027702;28;20510;-89
2023/01/25 07:16:41;;;;;;;100.40;39.13;;;;;;;1.44;73.20;103478.34;5002523;28;20296;-89
2023/01/25 07:19:10;;;;;;;91.60;34.90;;;;;;;1.30;73.57;103458.66;5010021;28;20116;-89
2023/01/25 07:21:35;;;;;;;94.30;36.20;;;;;;;1.36;73.46;103453.72;5024423;28;20521;-89
2023/01/25 07:24:03;;;;;;;92.97;35.90;;;;;;;1.42;74.02;103464.38;5024290;28;20029;-89
2023/01/25 07:26:29;;;;;;;94.28;34.53;;;;;;;1.52;73.39;103471.72;5030106;28;20091;-89
2023/01/25 07:28:55;;;;;;;96.93;37.58;;;;;;;1.55;73.59;103475.31;5009664;28;20021;-89
2023/01/25 07:31:22;;;;;;;91.40;34.92;;;;;;;1.55;73.44;103475.31;5004829;28;20029;-89
2023/01/25 07:33:49;;;;;;;96.32;37.65;;;;;;;1.58;73.49;103475.41;5030564;28;20037;-90
2023/01/25 07:36:14;;;;;;;93.88;36.60;;;;;;;1.55;72.80;103472.69;5029408;28;20124;-89
2023/01/25 07:38:39;;;;;;;93.70;33.92;;;;;;;1.35;73.65;103451.91;5028086;28;20337;-89
2023/01/25 07:41:05;;;;;;;95.72;35.28;;;;;;;1.44;72.76;103467.03;5021371;28;20036;-89
2023/01/25 07:43:30;;;;;;;95.53;38.88;;;;;;;1.36;73.48;103458.06;5026078;28;20073;-89
2023/01/25 07:46:01;;;;;;;102.18;38.95;;;;;;;1.17;73.42;103452.09;5006253;28;20511;-89
2023/01/25 07:48:26;;;;;;;102.75;38.63;;;;;;;1.19;73.52;103455.63;5029302;28;20392;-89
2023/01/25 07:51:10;;;;;;;94.30;35.83;;;;;;;1.18;73.68;103443.44;5025978;28;20086;-89
2023/01/25 07:53:36;;;;;;;102.88;37.80;;;;;;;1.18;74.50;103432.16;5023917;28;20029;-89
2023/01/25 07:56:01;;;;;;;103.20;37.60;;;;;;;1.33;74.31;103442.28;5007247;28;20037;-89
2023/01/25 07:58:27;;;;;;;94.55;35.25;;;;;;;1.45;74.22;103455.81;5022538;28;20087;-89
2023/01/25 08:00:52;;;;;;;99.40;37.80;;;;;;;1.49;73.81;103457.69;5010436;28;20033;-89
2023/01/25 08:03:20;;;;;;;103.25;37.65;;;;;;;1.53;73.46;103457.88;5003707;28;20428;-88
2023/01/25 08:05:46;;;;;;;101.72;37.13;;;;;;;1.47;73.83;103460.25;5007665;28;20519;-89
2023/01/25 08:08:11;;;;;;;102.55;38.22;;;;;;;1.50;73.73;103452.56;5004400;28;20022;-89
2023/01/25 08:10:38;;;;;;;100.25;37.25;;;;;;;1.57;73.67;103458.00;5026864;28;20554;-89
2023/01/25 08:13:03;;;;;;;98.40;36.88;;;;;;;1.60;73.79;103443.38;5025746;28;20037;-89
2023/01/25 08:15:28;;;;;;;96.03;37.60;;;;;;;1.63;73.45;103451.31;5024909;28;20075;-88
2023/01/25 08:17:54;;;;;;;98.68;37.47;;;;;;;1.58;73.52;103436.31;5028742;28;20029;-89
2023/01/25 08:20:20;;;;;;;96.72;36.35;;;;;;;1.55;73.17;103431.88;5029060;28;20056;-88
2023/01/25 08:22:46;;;;;;;102.38;38.75;;;;;;;1.52;73.36;103443.06;5027142;28;20044;-87
2023/01/25 08:25:11;;;;;;;103.07;37.30;;;;;;;1.47;73.29;103428.06;5008548;28;20534;-88
2023/01/25 08:27:36;;;;;;;104.90;39.08;;;;;;;1.49;73.76;103421.19;5033287;28;20570;-89
2023/01/25 08:30:02;;;;;;;102.22;37.28;;;;;;;1.62;73.43;103446.03;5022446;28;20513;-89
2023/01/25 08:32:27;;;;;;;102.70;38.90;;;;;;;1.57;73.26;103431.91;5028099;28;20033;-88
2023/01/25 08:34:52;;;;;;;89.25;35.47;;;;;;;1.55;73.14;103424.06;5011903;28;20041;-89
2023/01/25 08:37:18;;;;;;;103.65;35.97;;;;;;;1.61;73.58;103434.72;5032820;28;20103;-89
2023/01/25 08:39:43;;;;;;;97.50;38.50;;;;;;;1.59;73.24;103427.69;5013769;28;20033;-89
2023/01/25 08:42:08;;;;;;;103.53;38.72;;;;;;;1.65;73.05;103440.94;5024464;28;20029;-89
2023/01/25 08:44:34;;;;;;;106.95;38.10;;;;;;;1.62;73.30;103432.97;5003590;28;20057;-89
2023/01/25 08:46:59;;;;;;;101.82;38.03;;;;;;;1.68;73.74;103433.22;4999038;28;20017;-89
2023/01/25 08:49:26;;;;;;;107.45;38.97;;;;;;;1.70;73.43;103436.78;5031923;28;20108;-88
2023/01/25 08:51:51;;;;;;;105.03;39.13;;;;;;;1.68;73.36;103430.59;5020671;28;20472;-89
2023/01/25 08:54:17;;;;;;;98.93;35.70;;;;;;;1.81;73.43;103451.09;5031003;28;20027;-88
2023/01/25 08:56:42;;;;;;;100.70;37.70;;;;;;;1.78;73.13;103440.56;5002540;28;20033;-89
2023/01/25 08:59:12;;;;;;;110.43;37.00;;;;;;;1.76;73.30;103434.41;5010123;28;20096;-88
2023/01/25 09:01:37;;;;;;;96.70;37.40;;;;;;;1.71;72.05;103428.13;5030652;28;20025;-88
2023/01/25 09:04:03;;;;;;;89.65;33.20;;;;;;;1.68;72.20;103431.53;5030716;28;20476;-88
2023/01/25 09:06:28;;;;;;;86.53;33.80;;;;;;;1.58;72.73;103408.50;5009012;28;20076;-88
2023/01/25 09:08:54;;;;;;;95.13;34.38;;;;;;;1.71;72.72;103425.50;5006306;28;20116;-87
2023/01/25 09:11:21;;;;;;;94.20;34.95;;;;;;;1.77;72.23;103424.03;5001277;28;20477;-88
2023/01/25 09:13:47;;;;;;;103.38;37.05;;;;;;;1.65;71.55;103425.28;5013613;28;20036;-88
2023/01/25 09:16:27;;;;;;;98.82;36.58;;;;;;;1.63;72.12;103424.31;5018296;28;20428;-88
2023/01/25 09:18:53;;;;;;;104.10;37.80;;;;;;;1.51;71.57;103417.81;5036019;28;20025;-89
2023/01/25 09:21:18;;;;;;;98.93;35.92;;;;;;;1.37;72.29;103412.91;5036793;28;20394;-88
2023/01/25 09:23:48;;;;;;;109.65;36.90;;;;;;;1.48;73.24;103417.69;5036272;28;20463;-89
2023/01/25 09:26:14;;;;;;;98.03;36.00;;;;;;;1.55;73.11;103408.41;5013557;28;20033;-89
2023/01/25 09:28:41;;;;;;;100.72;37.45;;;;;;;1.70;73.25;103421.13;5035005;28;20150;-89
2023/01/25 09:31:15;;;;;;;109.55;38.13;;;;;;;1.70;72.87;103395.94;5032950;28;20037;-89
2023/01/25 09:33:41;;;;;;;98.53;35.85;;;;;;;1.85;73.31;103413.00;5013723;28;20028;-89
2023/01/25 09:36:08;;;;;;;103.38;35.47;;;;;;;1.83;72.73;103401.63;5018177;28;20064;-89
2023/01/25 09:38:33;;;;;;;103.47;36.53;;;;;;;1.87;72.87;103417.44;5042416;28;20476;-89
2023/01/25 09:41:36;;;;;;;100.78;36.47;;;;;;;1.86;72.45;103410.44;5035626;28;20124;-88
2023/01/25 09:44:01;;;;;;;;;;;;;;;1.94;72.60;103413.34;5033282;28;20079;-88
2023/01/25 09:46:47;;;;;;;93.63;34.15;;;;;;;1.83;72.47;103418.16;5018332;28;19917;-88
2023/01/25 09:49:22;;;;;;;99.05;36.20;;;;;;;1.71;72.60;103412.47;5015113;28;20268;-88
2023/01/25 09:51:56;;;;;;;107.68;36.75;;;;;;;1.70;73.40;103411.59;5026657;28;20087;-88
2023/01/25 09:54:22;;;;;;;105.55;37.83;;;;;;;1.72;73.02;103407.31;5025398;28;20132;-89
2023/01/25 09:56:50;;;;;;;113.55;36.53;;;;;;;1.77;73.42;103418.81;5006211;28;20071;-88
2023/01/25 09:59:21;;;;;;;100.20;35.67;;;;;;;1.69;73.65;103388.06;5032789;28;20076;-88
2023/01/25 10:01:59;;;;;;;102.10;35.83;;;;;;;1.84;72.81;103411.22;5033968;28;20033;-89
2023/01/25 10:04:29;;;;;;;104.15;37.15;;;;;;;1.71;72.34;103415.97;5029645;28;20505;-89
2023/01/25 10:07:11;;;;;;;99.85;34.83;;;;;;;1.74;73.05;103402.16;5010605;28;20040;-89
2023/01/25 10:10:15;;;;;;;102.35;35.97;;;;;;;1.90;73.03;103417.53;5025514;28;20029;-89
2023/01/25 10:12:41;;;;;;;102.90;36.95;;;;;;;1.77;73.21;103389.22;4988462;28;20030;-89
2023/01/25 10:15:41;;;;;;;97.60;34.88;;;;;;;1.87;72.90;103393.09;5032573;28;20025;-89
2023/01/25 10:18:32;;;;;;;98.78;34.33;;;;;;;1.82;72.84;103398.13;5033733;28;20631;-89
2023/01/25 10:21:02;;;;;;;97.10;35.92;;;;;;;1.74;73.75;103381.31;5030013;28;20120;-89
2023/01/25 10:23:59;;;;;;;106.75;37.92;;;;;;;1.76;73.34;103383.13;5032599;28;20147;-89
2023/01/25 10:26:33;;;;;;;105.43;37.88;;;;;;;1.75;72.50;103393.50;5025297;28;20067;-89
2023/01/25 10:29:09;;;;;;;99.85;36.13;;;;;;;1.63;72.80;103367.88;5030874;28;20578;-88
2023/01/25 10:32:00;;;;;;;92.80;33.17;;;;;;;1.76;73.15;103372.69;5007960;28;20573;-89
2023/01/25 10:34:35;;;;;;;100.65;36.78;;;;;;;1.72;72.57;103375.13;5010258;28;20041;-89
2023/01/25 10:37:10;;;;;;;99.05;36.53;;;;;;;1.67;72.66;103379.28;5004778;28;20104;-89
2023/01/25 10:39:40;;;;;;;99.30;35.50;;;;;;;1.49;72.98;103362.16;5029907;28;20029;-89
2023/01/25 10:42:10;;;;;;;109.40;38.35;;;;;;;1.51;73.53;103349.16;5028321;28;20079;-89
2023/01/25 10:44:36;;;;;;;109.47;37.53;;;;;;;1.55;72.43;103342.34;5029857;28;20136;-90
2023/01/25 10:47:15;;;;;;;100.63;36.42;;;;;;;1.43;73.04;103330.63;5030066;28;20587;-89
2023/01/25 10:49:50;;;;;;;107.32;38.08;;;;;;;1.31;73.96;103327.56;5029304;28;20044;-89
2023/01/25 10:52:22;;;;;;;108.45;40.78;;;;;;;1.39;73.67;103335.66;5031732;28;20025;-89
2023/01/25 10:55:06;;;;;;;99.07;36.45;;;;;;;1.24;74.14;103309.91;5013490;28;20538;-89
2023/01/25 10:57:33;;;;;;;108.93;39.10;;;;;;;1.22;73.65;103319.41;5027866;28;20477;-89
2023/01/25 11:00:04;;;;;;;94.45;34.03;;;;;;;1.46;74.50;103330.75;5010275;28;20542;-89
2023/01/25 11:02:35;;;;;;;96.45;35.65;;;;;;;1.52;74.15;103324.88;5025364;28;20083;-90
2023/01/25 11:05:31;;;;;;;84.63;32.83;;;;;;;1.48;72.90;103316.03;5026947;28;20477;-89
2023/01/25 11:07:57;;;;;;;88.30;31.70;;;;;;;1.36;73.72;103297.34;5026598;28;20524;-89
2023/01/25 11:10:34;;;;;;;99.30;35.03;;;;;;;1.36;73.23;103294.75;5028662;28;20060;-89
2023/01/25 11:13:12;;;;;;;93.18;33.60;;;;;;;1.48;73.87;103299.50;5027431;28;20029;-89
2023/01/25 11:15:38;;;;;;;93.10;33.85;;;;;;;1.45;72.57;103284.66;5022119;28;20116;-89
2023/01/25 11:18:05;;;;;;;89.43;34.80;;;;;;;1.47;71.94;103271.69;5020880;28;20029;-90